createdAt,value
2022-08-17T00:02:25.876Z,23.68
2022-08-17T00:04:54.916Z,23.71
2022-08-17T00:07:22.561Z,23.68
2022-08-17T00:09:49.750Z,23.72
2022-08-17T00:15:10.875Z,23.57
2022-08-17T00:17:38.387Z,23.50
2022-08-17T00:20:06.358Z,23.51
2022-08-17T00:22:36.543Z,23.51
2022-08-17T00:25:09.509Z,23.50
2022-08-17T00:27:37.039Z,23.54
2022-08-17T00:30:09.848Z,23.59
2022-08-17T00:33:14.778Z,23.54
2022-08-17T00:35:29.833Z,23.48
2022-08-17T00:37:57.033Z,23.41
2022-08-17T00:40:24.812Z,23.33
2022-08-17T00:42:53.223Z,23.26
2022-08-17T00:45:21.052Z,23.27
2022-08-17T00:47:49.460Z,23.27
2022-08-17T00:50:18.751Z,23.31
2022-08-17T00:52:53.533Z,23.24
2022-08-17T00:55:21.392Z,23.31
2022-08-17T00:57:55.524Z,23.27
2022-08-17T01:00:31.456Z,23.21
2022-08-17T01:03:08.506Z,23.24
2022-08-17T01:05:42.360Z,23.16
2022-08-17T01:08:13.611Z,23.09
2022-08-17T01:10:58.443Z,23.04
2022-08-17T01:13:41.268Z,23.03
2022-08-17T01:16:20.324Z,23.02
2022-08-17T01:18:50.485Z,23.04
2022-08-17T01:21:26.898Z,23.00
2022-08-17T01:23:54.108Z,23.07
2022-08-17T01:26:21.876Z,23.02
2022-08-17T01:28:54.926Z,23.06
2022-08-17T01:31:25.183Z,22.95
2022-08-17T01:33:52.725Z,22.93
2022-08-17T01:36:20.247Z,22.92
2022-08-17T01:38:47.411Z,22.89
2022-08-17T01:41:16.547Z,22.81
2022-08-17T01:43:54.688Z,22.88
2022-08-17T01:46:27.588Z,22.88
2022-08-17T01:48:57.314Z,22.75
2022-08-17T01:51:32.852Z,22.69
2022-08-17T01:54:13.367Z,22.75
2022-08-17T01:56:43.786Z,22.69
2022-08-17T01:59:15.827Z,22.65
2022-08-17T02:01:43.647Z,22.71
2022-08-17T02:04:11.161Z,22.68
2022-08-17T02:06:52.474Z,22.69
2022-08-17T02:09:29.534Z,22.63
2022-08-17T02:11:59.612Z,22.61
2022-08-17T02:14:27.059Z,22.48
2022-08-17T02:16:54.438Z,22.58
2022-08-17T02:19:22.411Z,22.43
2022-08-17T02:21:52.676Z,22.40
2022-08-17T02:24:58.875Z,22.34
2022-08-17T02:27:11.556Z,22.48
2022-08-17T02:29:38.629Z,22.41
2022-08-17T02:32:06.067Z,22.40
2022-08-17T02:34:33.184Z,22.43
2022-08-17T02:37:00.346Z,22.41
2022-08-17T02:39:27.497Z,22.47
2022-08-17T02:42:01.892Z,22.40
2022-08-17T02:44:38.677Z,22.41
2022-08-17T02:47:08.985Z,22.24
2022-08-17T02:49:36.842Z,21.92
2022-08-17T02:52:05.793Z,21.77
2022-08-17T02:54:41.405Z,21.65
2022-08-17T02:57:10.205Z,21.43
2022-08-17T02:59:39.519Z,21.62
2022-08-17T03:02:11.764Z,21.59
2022-08-17T03:04:38.900Z,21.72
2022-08-17T03:07:06.710Z,21.70
2022-08-17T03:09:33.960Z,21.89
2022-08-17T03:12:10.965Z,21.79
2022-08-17T03:14:41.682Z,21.82
2022-08-17T03:17:17.018Z,21.86
2022-08-17T03:19:44.919Z,21.94
2022-08-17T03:22:35.986Z,21.96
2022-08-17T03:24:59.222Z,22.00
2022-08-17T03:27:26.649Z,21.86
2022-08-17T03:29:54.390Z,21.92
2022-08-17T03:32:21.514Z,21.96
2022-08-17T03:34:48.846Z,21.93
2022-08-17T03:37:15.967Z,21.83
2022-08-17T03:39:47.444Z,21.92
2022-08-17T03:42:32.188Z,21.83
2022-08-17T03:45:01.547Z,21.65
2022-08-17T03:47:47.220Z,21.58
2022-08-17T03:50:34.097Z,21.60
2022-08-17T03:53:24.976Z,21.49
2022-08-17T03:56:10.628Z,21.42
2022-08-17T03:58:37.853Z,21.46
2022-08-17T04:01:06.743Z,21.45
2022-08-17T04:03:34.031Z,21.56
2022-08-17T04:06:02.198Z,21.65
2022-08-17T04:08:29.931Z,21.80
2022-08-17T04:13:49.203Z,21.96
2022-08-17T04:16:16.819Z,21.94
2022-08-17T04:18:47.163Z,21.87
2022-08-17T04:21:14.336Z,21.83
2022-08-17T04:23:41.501Z,21.85
2022-08-17T04:26:08.818Z,21.82
2022-08-17T04:28:36.004Z,21.86
2022-08-17T04:31:03.251Z,21.93
2022-08-17T04:33:30.999Z,22.01
2022-08-17T04:38:52.289Z,22.16
2022-08-17T04:41:38.313Z,22.28
2022-08-17T04:44:11.555Z,22.24
2022-08-17T04:46:39.264Z,22.31
2022-08-17T04:49:09.195Z,22.40
2022-08-17T04:51:39.746Z,22.49
2022-08-17T04:54:20.817Z,22.44
2022-08-17T04:59:38.991Z,22.37
2022-08-17T05:02:06.073Z,22.48
2022-08-17T05:04:35.155Z,22.55
2022-08-17T05:07:03.226Z,22.68
2022-08-17T05:09:30.987Z,22.79
2022-08-17T05:12:03.862Z,22.92
2022-08-17T05:14:33.097Z,22.93
2022-08-17T05:17:01.984Z,22.95
2022-08-17T05:19:34.713Z,22.99
2022-08-17T05:22:05.694Z,23.00
2022-08-17T05:24:42.531Z,23.16
2022-08-17T05:27:18.824Z,23.61
2022-08-17T05:29:46.355Z,24.56
2022-08-17T05:32:39.084Z,25.20
2022-08-17T05:35:01.284Z,26.49
2022-08-17T05:37:28.648Z,27.52
2022-08-17T05:39:55.868Z,28.17
2022-08-17T05:42:24.189Z,28.47
2022-08-17T05:44:51.416Z,28.00
2022-08-17T05:47:18.543Z,28.99
2022-08-17T05:49:48.881Z,28.61
2022-08-17T05:52:19.743Z,29.00
2022-08-17T05:57:53.310Z,30.57
2022-08-17T06:00:26.350Z,30.92
2022-08-17T06:09:37.653Z,31.76
2022-08-17T06:12:30.665Z,31.98
2022-08-17T06:15:11.308Z,32.57
2022-08-17T06:17:39.007Z,32.71
2022-08-17T06:20:11.401Z,32.68
2022-08-17T06:22:45.357Z,33.30
2022-08-17T06:25:35.650Z,32.82
2022-08-17T06:28:05.920Z,33.33
2022-08-17T06:30:59.218Z,33.68
2022-08-17T06:33:34.455Z,34.23
2022-08-17T06:36:34.070Z,34.01
2022-08-17T06:39:31.925Z,33.47
2022-08-17T06:43:04.981Z,34.10
2022-08-17T06:45:36.658Z,34.23
2022-08-17T06:48:15.243Z,35.14
2022-08-17T06:50:49.155Z,34.28
2022-08-17T06:53:19.042Z,34.71
2022-08-17T06:56:08.937Z,34.98
2022-08-17T06:58:40.233Z,35.49
2022-08-17T07:01:28.342Z,34.28
2022-08-17T07:04:17.264Z,35.08
2022-08-17T07:12:45.887Z,34.64
2022-08-17T07:15:20.071Z,35.46
2022-08-17T07:17:48.520Z,34.76
2022-08-17T07:20:20.871Z,35.11
2022-08-17T07:26:05.549Z,36.16
2022-08-17T07:28:34.922Z,36.72
2022-08-17T07:31:04.701Z,36.06
2022-08-17T07:33:34.029Z,36.45
2022-08-17T07:36:01.628Z,36.25
2022-08-17T07:38:33.939Z,36.01
2022-08-17T07:41:06.307Z,35.58
2022-08-17T07:43:39.457Z,36.52
2022-08-17T07:46:34.248Z,36.72
2022-08-17T07:49:03.215Z,36.75
2022-08-17T07:51:33.873Z,36.93
2022-08-17T07:54:22.368Z,37.73
2022-08-17T07:56:51.209Z,37.48
2022-08-17T07:59:40.740Z,37.56
2022-08-17T08:02:17.092Z,36.49
2022-08-17T08:07:52.277Z,36.67
2022-08-17T08:10:35.621Z,37.56
2022-08-17T08:13:25.335Z,38.05
2022-08-17T08:15:55.833Z,37.95
2022-08-17T08:18:54.995Z,38.37
2022-08-17T08:21:33.383Z,38.12
2022-08-17T08:24:22.448Z,37.53
2022-08-17T08:27:09.851Z,37.98
2022-08-17T08:29:57.686Z,38.94
2022-08-17T08:33:00.129Z,38.40
2022-08-17T08:35:42.047Z,38.29
2022-08-17T08:38:40.213Z,38.16
2022-08-17T08:41:18.662Z,38.73
2022-08-17T08:44:01.670Z,39.37
2022-08-17T08:46:43.907Z,39.44
2022-08-17T08:49:45.150Z,38.62
2022-08-17T08:52:39.997Z,38.96
2022-08-17T08:55:27.120Z,39.76
2022-08-17T08:57:54.212Z,38.64
2022-08-17T09:00:24.732Z,39.51
2022-08-17T09:03:49.732Z,38.25
2022-08-17T09:06:33.211Z,38.52
2022-08-17T09:09:15.101Z,39.35
2022-08-17T09:12:02.255Z,39.54
2022-08-17T09:14:45.263Z,40.02
2022-08-17T09:17:19.539Z,41.07
2022-08-17T09:19:54.301Z,40.79
2022-08-17T09:22:52.730Z,39.10
2022-08-17T09:25:27.036Z,38.62
2022-08-17T09:28:16.345Z,37.40
2022-08-17T09:30:47.142Z,36.95
2022-08-17T09:33:19.608Z,36.51
2022-08-17T09:36:05.474Z,36.01
2022-08-17T09:38:45.171Z,35.70
2022-08-17T09:41:15.950Z,35.99
2022-08-17T09:43:58.233Z,35.97
2022-08-17T09:46:30.698Z,35.49
2022-08-17T09:49:45.902Z,35.75
2022-08-17T09:52:23.854Z,35.56
2022-08-17T09:54:53.441Z,35.53
2022-08-17T09:57:30.332Z,35.28
2022-08-17T10:00:17.181Z,35.05
2022-08-17T10:03:16.081Z,35.03
2022-08-17T10:05:49.400Z,35.34
2022-08-17T10:08:27.753Z,34.97
2022-08-17T10:11:08.077Z,35.05
2022-08-17T10:14:07.874Z,34.77
2022-08-17T10:17:05.023Z,35.01
2022-08-17T10:19:45.324Z,35.11
2022-08-17T10:26:04.724Z,35.01
2022-08-17T10:28:39.480Z,35.22
2022-08-17T10:34:27.231Z,34.76
2022-08-17T10:37:21.685Z,34.84
2022-08-17T10:40:26.372Z,34.90
2022-08-17T10:43:20.961Z,34.55
2022-08-17T10:46:31.191Z,34.45
2022-08-17T10:49:17.142Z,34.74
2022-08-17T10:51:50.168Z,34.56
2022-08-17T10:57:38.181Z,34.67
2022-08-17T11:00:17.295Z,34.68
2022-08-17T11:06:01.649Z,34.88
2022-08-17T11:08:58.348Z,35.01
2022-08-17T11:11:49.953Z,34.82
2022-08-17T11:14:41.274Z,34.82
2022-08-17T11:17:19.122Z,34.87
2022-08-17T11:19:49.266Z,34.52
2022-08-17T11:22:42.568Z,34.49
2022-08-17T11:25:15.490Z,34.66
2022-08-17T11:27:43.966Z,34.68
2022-08-17T11:30:32.916Z,34.36
2022-08-17T11:33:29.666Z,34.55
2022-08-17T11:36:23.673Z,34.40
2022-08-17T11:42:34.351Z,34.90
2022-08-17T11:45:32.473Z,34.87
2022-08-17T11:48:56.178Z,34.76
2022-08-17T11:51:44.695Z,34.88
2022-08-17T11:54:38.004Z,34.83
2022-08-17T11:57:43.069Z,34.94
2022-08-17T12:00:47.061Z,35.05
2022-08-17T12:03:38.931Z,34.84
2022-08-17T12:06:24.904Z,35.11
2022-08-17T12:09:10.259Z,35.00
2022-08-17T12:15:11.749Z,35.05
2022-08-17T12:17:43.041Z,35.12
2022-08-17T12:20:27.923Z,35.01
2022-08-17T12:23:20.229Z,35.11
2022-08-17T12:25:59.583Z,35.19
2022-08-17T12:28:30.283Z,35.00
2022-08-17T12:31:05.877Z,34.53
2022-08-17T12:33:35.813Z,34.23
2022-08-17T12:36:06.539Z,34.35
2022-08-17T12:38:36.196Z,34.39
2022-08-17T12:41:26.101Z,34.37
2022-08-17T12:44:03.730Z,34.37
2022-08-17T12:46:35.819Z,34.50
2022-08-17T12:49:19.653Z,34.40
2022-08-17T12:51:47.771Z,34.70
2022-08-17T12:54:34.028Z,34.83
2022-08-17T12:57:09.093Z,34.49
2022-08-17T12:59:41.451Z,34.26
2022-08-17T13:02:24.573Z,34.25
2022-08-17T13:04:51.833Z,34.20
2022-08-17T13:07:46.694Z,34.42
2022-08-17T13:10:32.867Z,34.32
2022-08-17T13:13:17.678Z,34.52
2022-08-17T13:15:55.358Z,34.52
2022-08-17T13:18:31.572Z,34.49
2022-08-17T13:20:59.372Z,34.68
2022-08-17T13:23:32.403Z,34.79
2022-08-17T13:26:16.047Z,34.88
2022-08-17T13:28:49.712Z,34.76
2022-08-17T13:34:19.012Z,34.88
2022-08-17T13:36:48.824Z,34.86
2022-08-17T13:39:22.635Z,34.84
2022-08-17T13:41:51.699Z,34.61
2022-08-17T13:44:32.925Z,34.26
2022-08-17T13:47:02.332Z,34.45
2022-08-17T13:49:48.128Z,34.52
2022-08-17T13:52:43.135Z,34.46
2022-08-17T13:55:20.874Z,34.45
2022-08-17T14:00:41.460Z,34.79
2022-08-17T14:03:08.560Z,34.61
2022-08-17T14:05:39.435Z,34.76
2022-08-17T14:08:07.224Z,34.83
2022-08-17T14:10:36.420Z,34.79
2022-08-17T14:13:05.312Z,34.74
2022-08-17T14:15:55.725Z,34.73
2022-08-17T14:18:49.835Z,34.76
2022-08-17T14:21:09.595Z,34.84
2022-08-17T14:23:37.380Z,34.90
2022-08-17T14:26:05.083Z,34.84
2022-08-17T14:28:32.308Z,34.64
2022-08-17T14:31:00.750Z,34.61
2022-08-17T14:33:28.828Z,34.47
2022-08-17T14:35:57.602Z,34.52
2022-08-17T14:38:25.233Z,34.50
2022-08-17T14:40:52.667Z,34.63
2022-08-17T14:43:20.957Z,34.59
2022-08-17T14:45:48.144Z,34.70
2022-08-17T14:48:15.909Z,34.59
2022-08-17T14:50:43.983Z,34.59
2022-08-17T14:53:14.903Z,34.47
2022-08-17T14:55:46.979Z,34.52
2022-08-17T14:58:15.845Z,34.47
2022-08-17T15:00:43.677Z,34.49
2022-08-17T15:03:11.804Z,34.46
2022-08-17T15:05:40.130Z,34.53
2022-08-17T15:08:08.250Z,34.46
2022-08-17T15:13:27.640Z,34.33
2022-08-17T15:15:54.909Z,34.25
2022-08-17T15:18:22.718Z,34.23
2022-08-17T15:20:50.287Z,34.18
2022-08-17T15:23:20.914Z,34.25
2022-08-17T15:25:50.112Z,34.20
2022-08-17T15:28:17.376Z,34.22
2022-08-17T15:30:45.085Z,34.25
2022-08-17T15:33:15.136Z,34.12
2022-08-17T15:36:09.146Z,33.95
2022-08-17T15:38:39.683Z,33.90
2022-08-17T15:41:15.114Z,33.84
2022-08-17T15:43:44.522Z,33.68
2022-08-17T15:46:16.606Z,33.68
2022-08-17T15:48:46.141Z,33.71
2022-08-17T15:51:17.643Z,33.63
2022-08-17T15:53:50.624Z,33.54
2022-08-17T15:56:18.600Z,33.44
2022-08-17T15:58:47.259Z,33.50
2022-08-17T16:01:35.178Z,33.40
2022-08-17T16:04:13.283Z,33.33
2022-08-17T16:06:52.528Z,33.22
2022-08-17T16:09:19.650Z,33.16
2022-08-17T16:11:53.685Z,33.03
2022-08-17T16:14:24.578Z,33.00
2022-08-17T16:16:59.622Z,32.98
2022-08-17T16:19:26.759Z,32.98
2022-08-17T16:21:53.925Z,32.89
2022-08-17T16:24:21.059Z,32.82
2022-08-17T16:26:48.260Z,32.86
2022-08-17T16:29:15.436Z,32.90
2022-08-17T16:31:43.276Z,32.89
2022-08-17T16:34:16.813Z,32.89
2022-08-17T16:36:51.735Z,32.82
2022-08-17T16:39:27.510Z,32.83
2022-08-17T16:41:56.100Z,32.71
2022-08-17T16:44:23.773Z,32.74
2022-08-17T16:46:50.945Z,32.65
2022-08-17T16:49:35.574Z,32.58
2022-08-17T16:52:07.647Z,32.64
2022-08-17T16:54:37.986Z,32.51
2022-08-17T16:57:05.591Z,32.42
2022-08-17T16:59:41.894Z,32.37
2022-08-17T17:02:14.579Z,32.38
2022-08-17T17:05:13.763Z,32.31
2022-08-17T17:07:55.488Z,32.20
2022-08-17T17:10:30.129Z,32.24
2022-08-17T17:13:02.547Z,32.14
2022-08-17T17:15:59.859Z,32.03
2022-08-17T17:18:55.443Z,31.84
2022-08-17T17:21:31.289Z,31.70
2022-08-17T17:24:06.820Z,31.62
2022-08-17T17:26:48.884Z,31.52
2022-08-17T17:29:54.430Z,31.49
2022-08-17T17:32:37.798Z,31.42
2022-08-17T17:35:10.551Z,31.34
2022-08-17T17:37:40.028Z,31.31
2022-08-17T17:40:15.282Z,31.28
2022-08-17T17:42:44.004Z,31.18
2022-08-17T17:45:26.039Z,31.15
2022-08-17T17:47:53.552Z,31.14
2022-08-17T17:50:45.918Z,31.02
2022-08-17T17:53:22.516Z,30.97
2022-08-17T17:56:34.274Z,30.94
2022-08-17T17:59:28.430Z,30.84
2022-08-17T18:02:06.979Z,30.84
2022-08-17T18:04:49.504Z,30.86
2022-08-17T18:07:28.603Z,30.71
2022-08-17T18:10:29.740Z,30.55
2022-08-17T18:13:00.709Z,30.47
2022-08-17T18:15:34.051Z,30.42
2022-08-17T18:18:19.807Z,30.42
2022-08-17T18:20:55.973Z,30.29
2022-08-17T18:23:28.215Z,30.23
2022-08-17T18:25:57.123Z,30.16
2022-08-17T18:28:40.814Z,30.08
2022-08-17T18:31:19.695Z,30.06
2022-08-17T18:33:55.585Z,30.01
2022-08-17T18:39:28.666Z,29.88
2022-08-17T18:41:58.395Z,29.82
2022-08-17T18:44:43.974Z,29.63
2022-08-17T18:47:24.962Z,29.68
2022-08-17T18:49:58.563Z,29.49
2022-08-17T18:52:29.915Z,29.51
2022-08-17T18:55:00.228Z,29.49
2022-08-17T18:57:48.456Z,29.40
2022-08-17T19:00:41.904Z,29.31
2022-08-17T19:03:18.387Z,29.20
2022-08-17T19:06:14.970Z,29.16
2022-08-17T19:08:42.103Z,29.15
2022-08-17T19:11:19.157Z,29.13
2022-08-17T19:14:08.000Z,29.05
2022-08-17T19:16:49.188Z,28.98
2022-08-17T19:19:55.365Z,28.92
2022-08-17T19:22:44.740Z,28.83
2022-08-17T19:25:22.811Z,28.75
2022-08-17T19:28:03.114Z,28.76
2022-08-17T19:30:30.820Z,28.72
2022-08-17T19:32:58.463Z,28.64
2022-08-17T19:35:39.939Z,28.51
2022-08-17T19:38:16.295Z,28.39
2022-08-17T19:41:05.243Z,28.39
2022-08-17T19:44:01.923Z,28.25
2022-08-17T19:46:59.504Z,28.17
2022-08-17T19:49:41.027Z,28.13
2022-08-17T19:52:17.744Z,28.12
2022-08-17T19:54:56.495Z,28.13
2022-08-17T19:58:01.404Z,28.09
2022-08-17T20:00:31.181Z,28.04
2022-08-17T20:03:16.152Z,27.90
2022-08-17T20:06:12.139Z,27.95
2022-08-17T20:08:59.363Z,27.93
2022-08-17T20:11:49.051Z,27.83
2022-08-17T20:14:23.629Z,27.76
2022-08-17T20:16:51.370Z,27.69
2022-08-17T20:19:24.461Z,27.69
2022-08-17T20:22:17.648Z,27.56
2022-08-17T20:24:47.933Z,27.41
2022-08-17T20:27:31.548Z,27.33
2022-08-17T20:30:01.752Z,27.28
2022-08-17T20:32:33.298Z,27.18
2022-08-17T20:35:09.298Z,27.14
2022-08-17T20:37:43.202Z,27.12
2022-08-17T20:40:10.370Z,27.11
2022-08-17T20:42:37.614Z,27.10
2022-08-17T20:45:26.435Z,26.99
2022-08-17T20:50:57.579Z,26.89
2022-08-17T20:53:59.980Z,26.76
2022-08-17T20:56:50.101Z,26.66
2022-08-17T20:59:21.218Z,26.52
2022-08-17T21:02:21.720Z,26.28
2022-08-17T21:04:52.850Z,26.21
2022-08-17T21:07:33.137Z,26.32
2022-08-17T21:10:21.668Z,26.31
2022-08-17T21:13:14.001Z,26.20
2022-08-17T21:15:49.308Z,26.20
2022-08-17T21:18:29.265Z,25.97
2022-08-17T21:21:52.254Z,25.63
2022-08-17T21:24:51.803Z,25.53
2022-08-17T21:27:34.801Z,25.81
2022-08-17T21:30:01.957Z,25.70
2022-08-17T21:32:36.224Z,25.83
2022-08-17T21:35:25.852Z,25.73
2022-08-17T21:37:58.983Z,25.60
2022-08-17T21:40:30.031Z,25.60
2022-08-17T21:43:04.762Z,25.47
2022-08-17T21:48:45.229Z,25.43
2022-08-17T21:51:20.722Z,25.33
2022-08-17T21:53:50.918Z,25.36
2022-08-17T21:56:46.792Z,25.22
2022-08-17T21:59:19.797Z,25.07
2022-08-17T22:01:58.631Z,24.99
2022-08-17T22:04:40.700Z,25.15
2022-08-17T22:07:11.071Z,25.29
2022-08-17T22:09:47.689Z,25.18
2022-08-17T22:12:24.236Z,25.18
2022-08-17T22:15:06.010Z,25.29
2022-08-17T22:17:35.917Z,25.38
2022-08-17T22:20:18.814Z,25.36
2022-08-17T22:23:04.664Z,25.43
2022-08-17T22:25:56.155Z,25.50
2022-08-17T22:29:01.910Z,25.54
2022-08-17T22:31:50.991Z,25.57
2022-08-17T22:34:18.181Z,25.50
2022-08-17T22:36:45.957Z,25.42
2022-08-17T22:39:13.404Z,25.45
2022-08-17T22:41:50.558Z,25.49
2022-08-17T22:44:31.730Z,25.46
2022-08-17T22:47:01.025Z,25.39
2022-08-17T22:49:53.812Z,25.40
2022-08-17T22:53:00.835Z,25.40
2022-08-17T22:55:49.385Z,25.35
2022-08-17T22:58:38.329Z,25.26
2022-08-17T23:01:33.347Z,25.20
2022-08-17T23:04:13.182Z,25.22
2022-08-17T23:06:43.646Z,25.26
2022-08-17T23:09:10.759Z,25.16
2022-08-17T23:11:49.331Z,25.11
2022-08-17T23:14:19.835Z,25.09
2022-08-17T23:16:48.679Z,25.08
2022-08-17T23:19:19.792Z,25.04
2022-08-17T23:21:48.741Z,24.99
2022-08-17T23:24:26.214Z,25.02
2022-08-17T23:26:54.624Z,25.04
2022-08-17T23:29:22.535Z,25.07
2022-08-17T23:31:51.077Z,25.08
2022-08-17T23:34:18.626Z,24.98
2022-08-17T23:36:52.277Z,24.95
2022-08-17T23:39:24.606Z,24.85
2022-08-17T23:41:58.172Z,24.57
2022-08-17T23:44:26.940Z,24.56
2022-08-17T23:46:54.614Z,24.39
2022-08-17T23:49:21.786Z,24.26
2022-08-17T23:51:49.453Z,24.13
2022-08-17T23:54:35.553Z,24.01
2022-08-17T23:57:04.845Z,23.61
2022-08-17T23:59:33.868Z,23.55
